Portada
METAR-TAF:

METAR-TAF

Aeroports :

Colmenar Viejo, Espanya

latitud: 40-39N, longitud: 003-44W, altitud: -999 m

Observació

L'informe es va fer fa 11 hores i 1 minuts, a les 18:00 UTC
Vent 4 kt del Nord/Nord-Est
Temperatura 8°C
Humitat 76%
Pressió 1013 hPa
Visibilitat 10 km o més
Escasses núvols a una alçada de 2000 ft
Cel ennuvolat a una alçada de 4000 ft

METAR: LECV 201800Z 03004KT 9999 FEW020 BKN040 08/04 Q1013

Hora: 07:01 (05:01 UTC)

Pronòstic

L'informe es va fer fa 12 hores i 1 minuts, a les 17:00 UTC
Pronòstic vàlid del 20 a les 18 UTC al 21 a les 03 UTC
Vent 8 kt del Nord-Est
Visibilitat 10 km o més
Escasses núvols a una alçada de 1500 ft
Núvols disperses a una alçada de 3000 ft

TAF: LECV 201700Z 2018/2103 04008KT 9999 FEW015 SCT030

Observacions i pronòstics meteorològics de més de 4000 aeroports (METAR i TAF).

Les estacions disponibles són els punts grocs i vermells al mapa.

Posi el ratolí al punt desitjat per veure el nom de l'estació.

Feu clic per veure les observacions i els pronòstics meteorològics.

Per canviar el mapa: feu clic els botons verds amb una creu de color negre per apropar; al botó verd amb un guió per allunyar la imatge; o en les fletxes verdes per a mapes adjacents.


METAR-TAF: